Aviation Digital Data Service (ADDS)

Output produced by METARs form (2106 UTC 08 February 2023)
found at http://aviationweather.gov/metar/data/
 
METAR text: KDIJ 082056Z AUTO 32011KT 10SM FEW037 OVC090 M03/M09 A3015 RMK AO2 SLP249 60000 T10281089 51002
Conditions at: KDIJ (DRIGGS REED MEM , ID, US) observed 2056 UTC 08 February 2023
Temperature: -2.8°C (27°F)
Dewpoint: -8.9°C (16°F) [RH = 63%]
Pressure (altimeter): 30.15 inches Hg (1021.1 mb)
[Sea-level pressure: 1024.9 mb]
Winds: from the NW (320 degrees) at 13 MPH (11 knots; 5.7 m/s)
Visibility: 10 or more miles (16+ km)
Ceiling: 9000 feet AGL
Clouds: few clouds at 3700 feet AGL
overcast cloud deck at 9000 feet AGL
Weather: automated observation with no human augmentation;
there may or may not be significant weather present at this time

METAR text: KDIJ 081956Z AUTO 07006KT 10SM FEW034 BKN060 OVC080 M01/M06 A3015 RMK AO2 SLP241 T10061056
Conditions at: KDIJ (DRIGGS REED MEM , ID, US) observed 1956 UTC 08 February 2023
Temperature: -0.6°C (31°F)
Dewpoint: -5.6°C (22°F) [RH = 69%]
Pressure (altimeter): 30.15 inches Hg (1021.1 mb)
[Sea-level pressure: 1024.1 mb]
Winds: from the ENE (70 degrees) at 7 MPH (6 knots; 3.1 m/s)
Visibility: 10 or more miles (16+ km)
Ceiling: 6000 feet AGL
Clouds: few clouds at 3400 feet AGL
broken clouds at 6000 feet AGL
overcast cloud deck at 8000 feet AGL
Weather: automated observation with no human augmentation;
there may or may not be significant weather present at this time

Forecast for: KDIJ (DRIGGS REED MEM , ID, US)
Text: KDIJ 082034Z 0821/0918 29013KT P6SM VCSH SCT030 BKN050
Forecast period: 2100 UTC 08 February 2023 to 0200 UTC 09 February 2023
Forecast type: FROM: standard forecast or significant change
Winds: from the WNW (290 degrees) at 15 MPH (13 knots; 6.7 m/s)
Visibility: 6 or more miles (10+ km)
Ceiling: 5000 feet AGL
Clouds: scattered clouds at 3000 feet AGL
broken clouds at 5000 feet AGL
Weather: VCSH  (showers in vicinity)
Text: FM090200 09006KT P6SM SCT040
Forecast period: 0200 to 1000 UTC 09 February 2023
Forecast type: FROM: standard forecast or significant change
Winds: from the E (90 degrees) at 7 MPH (6 knots; 3.1 m/s)
Visibility: 6 or more miles (10+ km)
Ceiling: at least 12,000 feet AGL
Clouds: scattered clouds at 4000 feet AGL
Weather: no significant weather forecast for this period
Text: FM091000 09003KT 6SM BR SCT004 AMD LTD TO CLD VIS AND WIND
Forecast period: 1000 to 1800 UTC 09 February 2023
Forecast type: FROM: standard forecast or significant change
Winds: from the E (90 degrees) at 3 MPH (3 knots; 1.5 m/s)
Visibility: 6 miles (10 km)
Ceiling: at least 12,000 feet AGL
Clouds: scattered clouds at 400 feet AGL
Weather: BR  (mist)